< < Back
Terminal Aerodrome Forecast


Current Version              Previous Versions:   1  2  3  4  5  6  7  8  9  

Terminal Aerodrome Forecast

895
FTUS42 KCAE 271025 AAD
TAFCAE
TAF AMD
KCAE 271025Z 2710/2806 VRB03KT P6SM BKN020
     FM271500 18005KT P6SM BKN025
     FM271800 22007KT P6SM VCTS BKN035CB=

Latest METAR

174
SAUS80 KWBC 271500 RRA
MTRCAE
METAR KCAE 271456Z 25006KT 10SM FEW019 BKN026 BKN034 BKN200 27/20 A3026
RMK AO2 SLP243 T02670200 50001


USA.gov is the U.S. government's official web portal to all federal, state and local government web resources and services.